createdAt,value
2023-04-15T00:00:03.885Z,20.80
2023-04-15T00:02:32.249Z,20.80
2023-04-15T00:05:00.295Z,21.00
2023-04-15T00:07:29.574Z,20.50
2023-04-15T00:09:57.912Z,20.80
2023-04-15T00:12:26.149Z,20.40
2023-04-15T00:14:54.429Z,20.70
2023-04-15T00:17:23.823Z,20.80
2023-04-15T00:19:51.850Z,20.60
2023-04-15T00:22:19.750Z,20.50
2023-04-15T00:24:47.693Z,20.50
2023-04-15T00:27:16.302Z,20.60
2023-04-15T00:29:44.417Z,20.60
2023-04-15T00:32:12.395Z,20.40
2023-04-15T00:34:41.698Z,20.70
2023-04-15T00:37:11.130Z,20.70
2023-04-15T00:39:39.212Z,20.80
2023-04-15T00:42:07.221Z,20.40
2023-04-15T00:44:35.311Z,20.60
2023-04-15T00:47:04.228Z,20.40
2023-04-15T00:49:32.216Z,20.70
2023-04-15T00:52:01.678Z,20.70
2023-04-15T00:54:29.730Z,20.70
2023-04-15T00:56:57.972Z,20.70
2023-04-15T00:59:26.186Z,20.50
2023-04-15T01:01:54.851Z,20.40
2023-04-15T01:04:23.069Z,20.60
2023-04-15T01:06:51.268Z,20.60
2023-04-15T01:09:20.696Z,20.60
2023-04-15T01:11:48.655Z,20.60
2023-04-15T01:14:17.408Z,20.40
2023-04-15T01:16:45.638Z,20.60
2023-04-15T01:19:15.639Z,20.70
2023-04-15T01:21:43.718Z,20.30
2023-04-15T01:24:12.398Z,20.50
2023-04-15T01:26:44.456Z,20.70
2023-04-15T01:29:13.056Z,20.30
2023-04-15T01:31:41.206Z,20.30
2023-04-15T01:34:09.179Z,20.70
2023-04-15T01:36:37.562Z,20.20
2023-04-15T01:39:06.614Z,20.10
2023-04-15T01:41:34.911Z,20.70
2023-04-15T01:44:04.241Z,20.30
2023-04-15T01:46:32.341Z,20.30
2023-04-15T01:49:00.927Z,20.40
2023-04-15T01:51:29.277Z,20.70
2023-04-15T01:53:57.584Z,20.40
2023-04-15T01:56:25.612Z,20.30
2023-04-15T01:58:53.875Z,20.40
2023-04-15T02:05:30.454Z,20.50
2023-04-15T02:07:59.236Z,20.20
2023-04-15T02:10:27.270Z,20.30
2023-04-15T02:12:55.407Z,20.70
2023-04-15T02:15:23.427Z,20.50
2023-04-15T02:17:52.477Z,20.30
2023-04-15T02:20:22.368Z,20.40
2023-04-15T02:22:52.207Z,20.00
2023-04-15T02:25:20.479Z,20.20
2023-04-15T02:27:48.488Z,20.30
2023-04-15T02:30:17.026Z,20.30
2023-04-15T02:32:45.283Z,20.40
2023-04-15T02:35:13.609Z,20.40
2023-04-15T02:37:43.587Z,20.30
2023-04-15T02:40:14.209Z,20.00
2023-04-15T02:42:44.152Z,20.20
2023-04-15T02:45:13.253Z,20.20
2023-04-15T02:47:41.826Z,19.80
2023-04-15T02:50:13.263Z,20.00
2023-04-15T02:52:42.028Z,20.20
2023-04-15T02:55:10.798Z,19.90
2023-04-15T02:57:41.049Z,20.10
2023-04-15T03:00:11.657Z,20.30
2023-04-15T03:02:42.081Z,20.20
2023-04-15T03:05:13.735Z,20.10
2023-04-15T03:07:41.743Z,20.10
2023-04-15T03:10:11.406Z,20.40
2023-04-15T03:12:40.873Z,20.30
2023-04-15T03:15:11.247Z,20.20
2023-04-15T03:17:39.389Z,20.10
2023-04-15T03:20:09.495Z,20.10
2023-04-15T03:22:37.473Z,19.90
2023-04-15T03:25:06.451Z,19.80
2023-04-15T03:27:34.510Z,19.90
2023-04-15T03:30:03.877Z,20.10
2023-04-15T03:32:32.343Z,19.90
2023-04-15T03:35:00.306Z,19.80
2023-04-15T03:37:28.205Z,20.00
2023-04-15T03:39:56.493Z,20.20
2023-04-15T03:42:24.619Z,19.90
2023-04-15T03:44:52.541Z,19.90
2023-04-15T03:47:21.853Z,19.90
2023-04-15T03:49:49.781Z,19.90
2023-04-15T03:52:17.759Z,20.00
2023-04-15T03:54:45.937Z,19.90
2023-04-15T03:57:14.030Z,20.00
2023-04-15T03:59:41.933Z,19.90
2023-04-15T04:02:10.005Z,20.20
2023-04-15T04:04:39.531Z,20.00
2023-04-15T04:07:07.518Z,20.10
2023-04-15T04:09:35.458Z,19.70
2023-04-15T04:12:04.104Z,19.80
2023-04-15T04:14:32.031Z,20.10
2023-04-15T04:17:00.112Z,20.10
2023-04-15T04:19:29.831Z,20.00
2023-04-15T04:21:59.139Z,19.80
2023-04-15T04:24:27.311Z,19.80
2023-04-15T04:26:56.481Z,19.90
2023-04-15T04:29:24.578Z,20.00
2023-04-15T04:31:52.558Z,19.70
2023-04-15T04:34:20.600Z,20.10
2023-04-15T04:36:48.580Z,20.00
2023-04-15T04:39:17.916Z,19.80
2023-04-15T04:41:45.965Z,20.00
2023-04-15T04:44:13.917Z,19.80
2023-04-15T04:46:41.934Z,19.80
2023-04-15T04:49:09.845Z,19.60
2023-04-15T04:51:37.945Z,20.10
2023-04-15T04:54:05.917Z,20.10
2023-04-15T04:56:35.563Z,20.10
2023-04-15T04:59:03.671Z,19.80
2023-04-15T05:01:31.674Z,19.90
2023-04-15T05:03:59.942Z,19.90
2023-04-15T05:06:30.476Z,19.70
2023-04-15T05:08:58.514Z,20.00
2023-04-15T05:11:26.657Z,19.70
2023-04-15T05:13:56.044Z,19.70
2023-04-15T05:16:25.767Z,19.90
2023-04-15T05:18:53.774Z,19.70
2023-04-15T05:21:21.861Z,19.80
2023-04-15T05:23:49.884Z,19.70
2023-04-15T05:26:17.820Z,19.80
2023-04-15T05:28:46.086Z,19.70
2023-04-15T05:31:15.489Z,19.80
2023-04-15T05:33:43.649Z,19.80
2023-04-15T05:36:12.045Z,19.90
2023-04-15T05:38:40.012Z,19.80
2023-04-15T05:41:07.960Z,20.10
2023-04-15T05:43:36.005Z,19.70
2023-04-15T05:46:03.970Z,19.80
2023-04-15T05:48:33.300Z,19.90
2023-04-15T05:51:01.611Z,20.30
2023-04-15T05:53:29.664Z,19.90
2023-04-15T05:55:57.848Z,20.20
2023-04-15T05:58:25.997Z,19.70
2023-04-15T06:00:54.038Z,19.80
2023-04-15T06:03:22.993Z,19.90
2023-04-15T06:05:52.491Z,20.40
2023-04-15T06:08:20.521Z,20.00
2023-04-15T06:10:48.641Z,20.30
2023-04-15T06:13:17.031Z,20.40
2023-04-15T06:15:44.971Z,20.10
2023-04-15T06:18:13.081Z,20.30
2023-04-15T06:20:41.747Z,20.20
2023-04-15T06:23:11.285Z,20.10
2023-04-15T06:25:39.219Z,20.20
2023-04-15T06:28:07.751Z,20.40
2023-04-15T06:30:36.811Z,20.40
2023-04-15T06:33:05.424Z,20.00
2023-04-15T06:35:33.513Z,20.40
2023-04-15T06:38:01.500Z,20.20
2023-04-15T06:40:31.186Z,20.30
2023-04-15T06:42:59.150Z,20.20
2023-04-15T06:45:27.321Z,20.00
2023-04-15T06:47:55.378Z,20.00
2023-04-15T06:50:23.400Z,19.90
2023-04-15T06:52:51.456Z,20.00
2023-04-15T06:55:19.405Z,20.20
2023-04-15T06:57:48.712Z,20.30
2023-04-15T07:00:17.467Z,20.00
2023-04-15T07:02:46.655Z,20.20
2023-04-15T07:05:15.533Z,20.30
2023-04-15T07:07:43.693Z,20.40
2023-04-15T07:10:11.984Z,20.60
2023-04-15T07:12:39.987Z,20.40
2023-04-15T07:15:10.677Z,20.30
2023-04-15T07:17:38.679Z,20.30
2023-04-15T07:20:08.493Z,20.20
2023-04-15T07:22:36.540Z,20.40
2023-04-15T07:25:05.224Z,20.60
2023-04-15T07:27:33.391Z,20.70
2023-04-15T07:30:01.541Z,20.60
2023-04-15T07:32:30.981Z,20.80
2023-04-15T07:34:59.001Z,20.70
2023-04-15T07:37:28.316Z,20.90
2023-04-15T07:39:56.632Z,20.80
2023-04-15T07:42:24.716Z,20.90
2023-04-15T07:44:53.270Z,20.90
2023-04-15T07:47:21.316Z,20.90
2023-04-15T07:49:51.470Z,20.90
2023-04-15T07:52:19.984Z,21.20
2023-04-15T07:54:47.961Z,20.80
2023-04-15T07:57:16.841Z,21.30
2023-04-15T07:59:44.887Z,21.00
2023-04-15T08:02:13.540Z,21.10
2023-04-15T08:04:41.857Z,21.40
2023-04-15T08:07:11.771Z,21.30
2023-04-15T08:09:39.797Z,21.30
2023-04-15T08:12:09.430Z,21.30
2023-04-15T08:14:37.398Z,21.50
2023-04-15T08:17:05.543Z,21.30
2023-04-15T08:19:34.039Z,21.30
2023-04-15T08:22:02.336Z,21.30
2023-04-15T08:24:32.442Z,21.10
2023-04-15T08:27:01.476Z,21.60
2023-04-15T08:29:30.730Z,21.60
2023-04-15T08:31:59.465Z,21.50
2023-04-15T08:34:27.462Z,21.70
2023-04-15T08:36:55.536Z,21.40
2023-04-15T08:39:23.704Z,21.70
2023-04-15T08:42:02.712Z,21.40
2023-04-15T08:44:34.841Z,21.70
2023-04-15T08:47:03.908Z,21.50
2023-04-15T08:49:33.091Z,21.60
2023-04-15T08:52:01.700Z,22.10
2023-04-15T08:54:29.974Z,22.10
2023-04-15T08:57:00.139Z,21.60
2023-04-15T08:59:28.203Z,21.70
2023-04-15T09:01:57.062Z,21.60
2023-04-15T09:04:25.048Z,21.80
2023-04-15T09:06:53.169Z,21.60
2023-04-15T09:09:21.191Z,21.80
2023-04-15T09:11:49.929Z,21.90
2023-04-15T09:14:19.288Z,22.00
2023-04-15T09:17:01.814Z,22.20
2023-04-15T09:19:30.702Z,21.80
2023-04-15T09:22:01.394Z,21.90
2023-04-15T09:24:38.404Z,21.80
2023-04-15T09:27:06.736Z,21.90
2023-04-15T09:29:37.109Z,21.60
2023-04-15T09:32:13.003Z,21.70
2023-04-15T09:34:40.970Z,21.90
2023-04-15T09:37:10.742Z,21.90
2023-04-15T09:39:50.478Z,22.00
2023-04-15T09:42:24.133Z,22.00
2023-04-15T09:44:53.926Z,22.30
2023-04-15T09:47:31.509Z,21.70
2023-04-15T09:50:00.907Z,22.00
2023-04-15T09:52:29.508Z,22.00
2023-04-15T09:55:00.206Z,21.60
2023-04-15T09:57:37.463Z,21.70
2023-04-15T10:00:09.896Z,21.80
2023-04-15T10:02:38.635Z,21.60
2023-04-15T10:05:08.946Z,21.50
2023-04-15T10:07:37.038Z,21.80
2023-04-15T10:10:07.130Z,22.00
2023-04-15T10:12:35.402Z,22.20
2023-04-15T10:15:07.814Z,21.70
2023-04-15T10:17:37.178Z,21.80
2023-04-15T10:20:07.581Z,22.10
2023-04-15T10:22:37.377Z,21.90
2023-04-15T10:25:07.090Z,21.60
2023-04-15T10:27:35.177Z,22.00
2023-04-15T10:30:03.819Z,22.20
2023-04-15T10:32:34.137Z,21.60
2023-04-15T10:35:04.206Z,21.60
2023-04-15T10:37:37.719Z,22.00
2023-04-15T10:40:28.177Z,22.10
2023-04-15T10:42:57.514Z,21.70
2023-04-15T10:45:28.467Z,22.10
2023-04-15T10:48:00.949Z,21.90
2023-04-15T10:50:32.581Z,21.70
2023-04-15T10:53:03.586Z,21.70
2023-04-15T10:55:34.381Z,21.60
2023-04-15T10:58:03.596Z,21.50
2023-04-15T11:00:35.635Z,21.70
2023-04-15T11:03:09.659Z,21.70
2023-04-15T11:05:52.026Z,21.70
2023-04-15T11:08:20.851Z,21.70
2023-04-15T11:10:56.246Z,21.80
2023-04-15T11:13:33.032Z,22.20
2023-04-15T11:16:03.717Z,22.10
2023-04-15T11:18:35.355Z,22.20
2023-04-15T11:21:06.933Z,22.00
2023-04-15T11:23:38.937Z,21.80
2023-04-15T11:26:11.859Z,22.00
2023-04-15T11:28:42.202Z,22.40
2023-04-15T11:31:12.588Z,22.00
2023-04-15T11:33:47.959Z,22.50
2023-04-15T11:36:16.084Z,22.10
2023-04-15T11:38:45.918Z,22.10
2023-04-15T11:41:14.114Z,22.40
2023-04-15T11:43:43.377Z,22.30
2023-04-15T11:46:11.396Z,21.90
2023-04-15T11:48:46.432Z,22.00
2023-04-15T11:51:15.931Z,21.90
2023-04-15T11:53:47.010Z,22.20
2023-04-15T11:56:20.177Z,22.10
2023-04-15T11:58:50.692Z,22.40
2023-04-15T12:01:18.802Z,21.90
2023-04-15T12:03:50.425Z,22.10
2023-04-15T12:06:20.875Z,22.20
2023-04-15T12:09:01.743Z,21.80
2023-04-15T12:11:42.860Z,22.40
2023-04-15T12:14:14.155Z,22.00
2023-04-15T12:16:49.175Z,22.00
2023-04-15T12:19:24.215Z,22.00
2023-04-15T12:21:54.711Z,22.20
2023-04-15T12:24:23.880Z,22.10
2023-04-15T12:26:53.909Z,21.90
2023-04-15T12:29:27.240Z,22.30
2023-04-15T12:31:57.495Z,22.00
2023-04-15T12:34:32.279Z,21.80
2023-04-15T12:37:02.412Z,22.40
2023-04-15T12:39:32.639Z,21.80
2023-04-15T12:42:01.555Z,21.70
2023-04-15T12:44:30.073Z,22.10
2023-04-15T12:46:58.253Z,22.30
2023-04-15T12:49:27.142Z,21.80
2023-04-15T12:51:59.389Z,22.30
2023-04-15T12:54:28.052Z,22.00
2023-04-15T12:56:56.703Z,22.50
2023-04-15T12:59:24.708Z,22.30
2023-04-15T13:01:53.999Z,22.10
2023-04-15T13:04:23.012Z,22.00
2023-04-15T13:06:51.601Z,22.30
2023-04-15T13:09:20.894Z,22.30
2023-04-15T13:11:48.883Z,22.40
2023-04-15T13:14:16.854Z,22.20
2023-04-15T13:16:44.806Z,22.10
2023-04-15T13:19:12.725Z,22.30
2023-04-15T13:21:40.844Z,21.80
2023-04-15T13:24:09.651Z,21.80
2023-04-15T13:26:39.079Z,21.60
2023-04-15T13:29:07.277Z,21.80
2023-04-15T13:31:35.492Z,22.10
2023-04-15T13:34:03.715Z,21.80
2023-04-15T13:36:32.297Z,21.90
2023-04-15T13:39:00.308Z,21.90
2023-04-15T13:41:28.250Z,21.70
2023-04-15T13:43:58.394Z,21.70
2023-04-15T13:46:26.776Z,21.60
2023-04-15T13:48:54.851Z,21.60
2023-04-15T13:51:22.893Z,21.60
2023-04-15T13:53:50.930Z,21.80
2023-04-15T13:56:18.860Z,21.60
2023-04-15T13:58:47.091Z,21.70
2023-04-15T14:01:16.523Z,21.80
2023-04-15T14:03:44.692Z,21.70
2023-04-15T14:06:12.829Z,21.70
2023-04-15T14:08:40.984Z,21.60
2023-04-15T14:11:08.945Z,21.60
2023-04-15T14:13:37.507Z,21.60
2023-04-15T14:16:06.597Z,21.70
2023-04-15T14:18:37.217Z,21.60
2023-04-15T14:21:07.150Z,21.50
2023-04-15T14:23:35.121Z,21.90
2023-04-15T14:26:03.186Z,21.40
2023-04-15T14:28:32.047Z,21.40
2023-04-15T14:31:00.471Z,21.50
2023-04-15T14:33:28.444Z,21.60
2023-04-15T14:35:57.807Z,21.30
2023-04-15T14:38:25.891Z,21.70
2023-04-15T14:40:53.822Z,21.30
2023-04-15T14:43:22.334Z,21.30
2023-04-15T14:45:51.456Z,21.50
2023-04-15T14:48:19.390Z,21.50
2023-04-15T14:50:47.491Z,21.50
2023-04-15T14:53:16.869Z,21.60
2023-04-15T14:55:45.516Z,21.40
2023-04-15T14:58:13.507Z,21.50
2023-04-15T15:00:44.277Z,21.30
2023-04-15T15:03:13.605Z,21.50
2023-04-15T15:05:42.920Z,21.70
2023-04-15T15:08:11.582Z,21.40
2023-04-15T15:10:49.409Z,21.50
2023-04-15T15:13:19.128Z,21.40
2023-04-15T15:15:49.261Z,21.40
2023-04-15T15:18:18.642Z,21.50
2023-04-15T15:20:46.630Z,21.30
2023-04-15T15:23:15.209Z,21.50
2023-04-15T15:25:44.788Z,21.40
2023-04-15T15:28:13.147Z,21.10
2023-04-15T15:30:41.171Z,21.50
2023-04-15T15:33:09.157Z,21.50
2023-04-15T15:35:37.172Z,21.30
2023-04-15T15:38:06.219Z,21.30
2023-04-15T15:40:34.470Z,21.50
2023-04-15T15:43:04.554Z,21.40
2023-04-15T15:45:32.746Z,21.40
2023-04-15T15:48:01.769Z,21.40
2023-04-15T15:50:29.858Z,21.40
2023-04-15T15:52:58.564Z,21.50
2023-04-15T15:55:27.224Z,21.30
2023-04-15T15:57:55.297Z,21.00
2023-04-15T16:00:24.757Z,21.40
2023-04-15T16:05:28.695Z,21.60
2023-04-15T16:07:56.758Z,21.20
2023-04-15T16:10:24.814Z,21.40
2023-04-15T16:12:52.834Z,21.40
2023-04-15T16:15:21.058Z,20.90
2023-04-15T16:17:50.402Z,21.40
2023-04-15T16:20:18.856Z,21.00
2023-04-15T16:22:47.017Z,21.40
2023-04-15T16:25:15.376Z,21.50
2023-04-15T16:27:56.554Z,21.30
2023-04-15T16:30:28.852Z,21.40
2023-04-15T16:32:59.872Z,21.40
2023-04-15T16:35:28.301Z,21.30
2023-04-15T16:37:56.341Z,21.20
2023-04-15T16:40:24.438Z,21.30
2023-04-15T16:42:53.153Z,21.20
2023-04-15T16:45:21.393Z,21.10
2023-04-15T16:47:49.456Z,20.80
2023-04-15T16:50:18.924Z,21.30
2023-04-15T16:52:47.003Z,21.10
2023-04-15T16:55:15.049Z,20.90
2023-04-15T16:58:02.441Z,20.80
2023-04-15T17:00:31.358Z,20.90
2023-04-15T17:02:59.769Z,21.20
2023-04-15T17:05:30.441Z,21.00
2023-04-15T17:07:58.490Z,21.20
2023-04-15T17:10:26.493Z,21.20
2023-04-15T17:12:56.609Z,20.80
2023-04-15T17:15:24.873Z,20.90
2023-04-15T17:17:53.001Z,20.70
2023-04-15T17:20:21.504Z,20.90
2023-04-15T17:22:51.050Z,20.70
2023-04-15T17:25:19.335Z,20.70
2023-04-15T17:27:47.352Z,21.10
2023-04-15T17:30:15.593Z,21.10
2023-04-15T17:32:43.688Z,21.00
2023-04-15T17:35:11.842Z,21.10
2023-04-15T17:37:40.020Z,20.80
2023-04-15T17:40:11.421Z,20.80
2023-04-15T17:42:39.399Z,21.10
2023-04-15T17:45:09.020Z,20.70
2023-04-15T17:47:37.125Z,20.90
2023-04-15T17:50:05.740Z,20.70
2023-04-15T17:52:33.721Z,21.10
2023-04-15T17:55:02.466Z,20.90
2023-04-15T17:57:31.892Z,20.70
2023-04-15T17:59:59.956Z,20.50
2023-04-15T18:02:28.236Z,20.90
2023-04-15T18:04:56.430Z,21.10
2023-04-15T18:07:24.638Z,20.80
2023-04-15T18:09:55.749Z,20.80
2023-04-15T18:12:23.838Z,20.70
2023-04-15T18:14:53.675Z,21.10
2023-04-15T18:17:21.740Z,20.50
2023-04-15T18:19:49.758Z,20.90
2023-04-15T18:22:17.807Z,20.60
2023-04-15T18:24:45.805Z,21.00
2023-04-15T18:27:13.919Z,20.70
2023-04-15T18:29:42.808Z,20.90
2023-04-15T18:32:12.277Z,20.50
2023-04-15T18:34:42.679Z,20.70
2023-04-15T18:37:10.706Z,20.50
2023-04-15T18:39:38.685Z,20.80
2023-04-15T18:42:06.626Z,20.70
2023-04-15T18:44:34.629Z,20.70
2023-04-15T18:47:02.624Z,20.70
2023-04-15T18:49:33.979Z,20.90
2023-04-15T18:52:01.912Z,20.80
2023-04-15T18:54:29.919Z,20.60
2023-04-15T18:56:57.966Z,20.50
2023-04-15T18:59:30.168Z,20.80
2023-04-15T19:01:59.463Z,20.60
2023-04-15T19:04:29.214Z,20.80
2023-04-15T19:06:59.115Z,20.50
2023-04-15T19:09:27.328Z,20.90
2023-04-15T19:11:56.686Z,20.90
2023-04-15T19:14:24.767Z,20.60
2023-04-15T19:16:52.833Z,20.60
2023-04-15T19:19:20.893Z,20.80
2023-04-15T19:21:50.043Z,20.50
2023-04-15T19:24:20.004Z,20.50
2023-04-15T19:26:50.627Z,20.50
2023-04-15T19:29:18.896Z,20.90
2023-04-15T19:31:46.975Z,20.50
2023-04-15T19:34:15.244Z,20.60
2023-04-15T19:36:43.980Z,20.60
2023-04-15T19:39:12.196Z,20.40
2023-04-15T19:41:41.521Z,20.60
2023-04-15T19:44:09.508Z,20.60
2023-04-15T19:46:37.559Z,20.30
2023-04-15T19:49:06.111Z,20.40
2023-04-15T19:51:34.506Z,20.60
2023-04-15T19:54:02.487Z,20.60
2023-04-15T19:56:32.391Z,20.60
2023-04-15T19:59:03.787Z,20.40
2023-04-15T20:01:32.145Z,20.70
2023-04-15T20:04:03.734Z,20.50
2023-04-15T20:06:31.756Z,20.50
2023-04-15T20:08:59.787Z,20.50
2023-04-15T20:12:44.958Z,20.70
2023-04-15T20:14:18.488Z,20.50
2023-04-15T20:16:46.563Z,20.40
2023-04-15T20:19:14.625Z,20.70
2023-04-15T20:21:42.700Z,20.40
2023-04-15T20:24:10.821Z,20.60
2023-04-15T20:26:38.757Z,20.70
2023-04-15T20:29:06.881Z,20.50
2023-04-15T20:31:36.307Z,20.70
2023-04-15T20:34:04.330Z,20.30
2023-04-15T20:36:32.669Z,20.60
2023-04-15T20:39:00.664Z,20.30
2023-04-15T20:41:28.614Z,20.60
2023-04-15T20:43:56.657Z,20.30
2023-04-15T20:46:26.666Z,20.60
2023-04-15T20:48:56.856Z,20.20
2023-04-15T20:51:24.885Z,20.40
2023-04-15T20:53:52.879Z,20.40
2023-04-15T20:56:21.135Z,20.50
2023-04-15T20:58:49.124Z,20.70
2023-04-15T21:01:17.140Z,20.50
2023-04-15T21:03:45.339Z,20.50
2023-04-15T21:06:14.909Z,20.40
2023-04-15T21:08:42.947Z,20.60
2023-04-15T21:11:11.277Z,20.50
2023-04-15T21:13:39.414Z,20.40
2023-04-15T21:16:07.527Z,20.70
2023-04-15T21:18:35.573Z,20.40
2023-04-15T21:21:04.005Z,20.60
2023-04-15T21:23:35.740Z,20.20
2023-04-15T21:26:03.808Z,20.30
2023-04-15T21:28:31.779Z,20.50
2023-04-15T21:31:00.221Z,20.60
2023-04-15T21:33:28.269Z,20.50
2023-04-15T21:35:56.216Z,20.30
2023-04-15T21:38:24.299Z,20.60
2023-04-15T21:40:53.688Z,20.30
2023-04-15T21:43:22.876Z,20.40
2023-04-15T21:46:21.016Z,20.40
2023-04-15T21:48:38.891Z,20.30
2023-04-15T21:51:06.942Z,20.40
2023-04-15T21:53:34.980Z,20.70
2023-04-15T21:56:04.466Z,20.70
2023-04-15T21:58:32.426Z,20.20
2023-04-15T22:01:00.598Z,20.40
2023-04-15T22:03:30.502Z,20.30
2023-04-15T22:05:58.539Z,20.70
2023-04-15T22:08:26.581Z,20.90
2023-04-15T22:10:56.106Z,21.10
2023-04-15T22:13:25.463Z,21.00
2023-04-15T22:15:53.493Z,21.10
2023-04-15T22:18:21.475Z,20.60
2023-04-15T22:20:49.489Z,21.30
2023-04-15T22:23:20.258Z,21.20
2023-04-15T22:25:48.845Z,21.20
2023-04-15T22:28:16.802Z,21.20
2023-04-15T22:30:46.156Z,21.20
2023-04-15T22:33:14.128Z,20.90
2023-04-15T22:35:42.066Z,21.40
2023-04-15T22:38:10.040Z,20.90
2023-04-15T22:40:38.133Z,21.20
2023-04-15T22:43:06.191Z,21.30
2023-04-15T22:45:34.257Z,21.10
2023-04-15T22:48:05.376Z,21.30
2023-04-15T22:50:33.422Z,21.20
2023-04-15T22:53:01.516Z,21.20
2023-04-15T22:55:29.512Z,21.20
2023-04-15T22:57:57.576Z,21.40
2023-04-15T23:00:25.916Z,21.00
2023-04-15T23:02:53.997Z,21.40
2023-04-15T23:05:23.618Z,21.30
2023-04-15T23:07:51.615Z,21.30
2023-04-15T23:10:19.564Z,21.40
2023-04-15T23:12:47.897Z,21.50
2023-04-15T23:15:16.119Z,21.10
2023-04-15T23:17:44.237Z,21.20
2023-04-15T23:20:13.316Z,21.30
2023-04-15T23:22:43.165Z,21.40
2023-04-15T23:25:11.262Z,21.50
2023-04-15T23:27:39.269Z,21.50
2023-04-15T23:30:09.037Z,21.60
2023-04-15T23:32:37.058Z,21.50
2023-04-15T23:35:05.916Z,21.40
2023-04-15T23:37:33.979Z,21.40
2023-04-15T23:40:03.432Z,21.40
2023-04-15T23:42:31.384Z,21.70
2023-04-15T23:44:59.416Z,21.60
2023-04-15T23:47:27.482Z,21.30
2023-04-15T23:49:55.558Z,21.30
2023-04-15T23:52:24.064Z,21.40
2023-04-15T23:54:52.268Z,21.40
2023-04-15T23:57:21.591Z,21.30
2023-04-15T23:59:49.584Z,21.40
